Loos, Canada
Current Conditions -  °F | °C
As of 10:00 PM on Wednesday 22 Oct 2014 (Local Time) from CYXS Reporting Station
Broken Clouds Broken Clouds  
Wind Chill: 39°   Ceiling: 18000
Heat Index: 43°   Visibility: 9mi
Dew Point: 41°   Wind: 7mph
Humidity: 93%   Direction: 360°N
Pressure: 29.43"   Gusts: NA
Location:  53.6°N, 120.72°W
Report Text: CYXS 230500Z AUTO 36006KT 9SM BKN180 06/05 A2943 RMK SLP982
Loading
Personal Weather Stations






























Interactive Weather Map
Tropical Storm Tracking
New forecast layout! Learn more

10-Day Weather Forecast

Advertisements
Track Severe Weather on mobile